createdAt,value
2023-03-25T00:01:55.569Z,97937.00
2023-03-25T00:04:43.388Z,97941.00
2023-03-25T00:07:31.650Z,97935.00
2023-03-25T00:10:20.037Z,97933.00
2023-03-25T00:13:08.601Z,97940.00
2023-03-25T00:15:59.161Z,97943.00
2023-03-25T00:18:48.184Z,97944.00
2023-03-25T00:21:35.848Z,97944.00
2023-03-25T00:24:23.406Z,97932.00
2023-03-25T00:27:11.084Z,97936.00
2023-03-25T00:29:58.628Z,97947.00
2023-03-25T00:32:50.207Z,97950.00
2023-03-25T00:35:39.712Z,97946.00
2023-03-25T00:38:38.203Z,97940.00
2023-03-25T00:41:27.137Z,97940.00
2023-03-25T00:44:17.364Z,97941.00
2023-03-25T00:47:04.888Z,97946.00
2023-03-25T00:49:52.781Z,97946.00
2023-03-25T00:52:40.752Z,97949.00
2023-03-25T00:55:28.332Z,97952.00
2023-03-25T00:58:15.826Z,97952.00
2023-03-25T01:01:14.279Z,97957.00
2023-03-25T01:04:01.803Z,97950.00
2023-03-25T01:06:52.082Z,97953.00
2023-03-25T01:09:42.206Z,97949.00
2023-03-25T01:12:29.749Z,97961.00
2023-03-25T01:15:17.287Z,97955.00
2023-03-25T01:18:05.333Z,97964.00
2023-03-25T01:20:52.832Z,97963.00
2023-03-25T01:23:40.666Z,97959.00
2023-03-25T01:26:28.159Z,97964.00
2023-03-25T01:29:19.237Z,97964.00
2023-03-25T01:32:06.921Z,97966.00
2023-03-25T01:34:54.485Z,97965.00
2023-03-25T01:37:44.268Z,97965.00
2023-03-25T01:40:31.766Z,97956.00
2023-03-25T01:43:20.257Z,97949.00
2023-03-25T01:46:17.300Z,97953.00
2023-03-25T01:49:10.044Z,97945.00
2023-03-25T01:52:05.691Z,97944.00
2023-03-25T01:54:57.213Z,97946.00
2023-03-25T01:57:46.448Z,97947.00
2023-03-25T02:00:34.471Z,97943.00
2023-03-25T02:03:24.761Z,97937.00
2023-03-25T02:06:26.662Z,97936.00
2023-03-25T02:09:19.794Z,97933.00
2023-03-25T02:12:07.417Z,97934.00
2023-03-25T02:14:57.582Z,97930.00
2023-03-25T02:18:19.284Z,97922.00
2023-03-25T02:21:28.668Z,97924.00
2023-03-25T02:24:54.298Z,97915.00
2023-03-25T02:28:01.973Z,97910.00
2023-03-25T02:31:02.059Z,97926.00
2023-03-25T02:34:33.588Z,97924.00
2023-03-25T02:37:37.172Z,97932.00
2023-03-25T02:41:04.961Z,97937.00
2023-03-25T02:44:07.893Z,97930.00
2023-03-25T02:47:03.095Z,97933.00
2023-03-25T02:50:01.180Z,97928.00
2023-03-25T02:52:55.839Z,97933.00
2023-03-25T02:55:48.148Z,97927.00
2023-03-25T02:58:36.443Z,97928.00
2023-03-25T03:01:26.973Z,97930.00
2023-03-25T03:04:14.659Z,97926.00
2023-03-25T03:07:02.288Z,97921.00
2023-03-25T03:10:33.848Z,97922.00
2023-03-25T03:13:45.556Z,97912.00
2023-03-25T03:17:11.514Z,97909.00
2023-03-25T03:20:15.325Z,97917.00
2023-03-25T03:23:21.054Z,97916.00
2023-03-25T03:26:42.045Z,97912.00
2023-03-25T03:29:51.159Z,97913.00
2023-03-25T03:33:01.318Z,97908.00
2023-03-25T03:35:58.792Z,97913.00
2023-03-25T03:38:54.601Z,97921.00
2023-03-25T03:41:47.706Z,97916.00
2023-03-25T03:44:40.188Z,97921.00
2023-03-25T03:47:36.952Z,97918.00
2023-03-25T03:50:36.750Z,97917.00
2023-03-25T03:53:34.746Z,97927.00
2023-03-25T03:56:41.402Z,97927.00
2023-03-25T04:00:08.280Z,97913.00
2023-03-25T04:03:19.136Z,97922.00
2023-03-25T04:06:42.272Z,97928.00
2023-03-25T04:09:41.161Z,97928.00
2023-03-25T04:12:37.703Z,97921.00
2023-03-25T04:15:25.678Z,97920.00
2023-03-25T04:18:13.471Z,97923.00
2023-03-25T04:21:01.997Z,97922.00
2023-03-25T04:23:50.224Z,97934.00
2023-03-25T04:26:38.462Z,97930.00
2023-03-25T04:29:26.348Z,97930.00
2023-03-25T04:32:14.971Z,97932.00
2023-03-25T04:35:02.635Z,97932.00
2023-03-25T04:37:53.819Z,97929.00
2023-03-25T04:40:41.356Z,97928.00
2023-03-25T04:43:28.870Z,97934.00
2023-03-25T04:46:18.494Z,97931.00
2023-03-25T04:49:14.262Z,97933.00
2023-03-25T04:52:04.408Z,97932.00
2023-03-25T04:54:51.963Z,97939.00
2023-03-25T04:57:39.456Z,97941.00
2023-03-25T05:00:27.372Z,97956.00
2023-03-25T05:03:16.025Z,97939.00
2023-03-25T05:06:03.609Z,97936.00
2023-03-25T05:08:51.190Z,97937.00
2023-03-25T05:11:39.977Z,97934.00
2023-03-25T05:14:27.588Z,97948.00
2023-03-25T05:17:15.496Z,97936.00
2023-03-25T05:20:11.738Z,97947.00
2023-03-25T05:22:59.290Z,97941.00
2023-03-25T05:25:51.104Z,97934.00
2023-03-25T05:28:41.510Z,97934.00
2023-03-25T05:31:29.888Z,97929.00
2023-03-25T05:34:17.775Z,97938.00
2023-03-25T05:37:05.734Z,97937.00
2023-03-25T05:39:53.288Z,97940.00
2023-03-25T05:42:49.196Z,97950.00
2023-03-25T05:45:37.302Z,97953.00
2023-03-25T05:48:24.778Z,97953.00
2023-03-25T05:51:16.875Z,97952.00
2023-03-25T05:54:10.907Z,97952.00
2023-03-25T05:56:59.141Z,97958.00
2023-03-25T05:59:46.732Z,97960.00
2023-03-25T06:02:38.963Z,97962.00
2023-03-25T06:05:26.774Z,97971.00
2023-03-25T06:08:14.339Z,97972.00
2023-03-25T06:11:01.792Z,97983.00
2023-03-25T06:13:52.354Z,97985.00
2023-03-25T06:16:39.922Z,97988.00
2023-03-25T06:19:27.557Z,97981.00
2023-03-25T06:22:15.680Z,97992.00
2023-03-25T06:25:04.451Z,97999.00
2023-03-25T06:27:52.059Z,98008.00
2023-03-25T06:30:39.572Z,98016.00
2023-03-25T06:33:42.402Z,98007.00
2023-03-25T06:36:31.810Z,98010.00
2023-03-25T06:39:19.510Z,98008.00
2023-03-25T06:42:07.542Z,98007.00
2023-03-25T06:44:55.946Z,98015.00
2023-03-25T06:47:43.631Z,98013.00
2023-03-25T06:50:31.971Z,98012.00
2023-03-25T06:53:19.559Z,98007.00
2023-03-25T06:56:07.751Z,98010.00
2023-03-25T06:58:55.374Z,98012.00
2023-03-25T07:01:43.241Z,98002.00
2023-03-25T07:04:33.106Z,98010.00
2023-03-25T07:07:20.613Z,98013.00
2023-03-25T07:10:08.742Z,98010.00
2023-03-25T07:12:56.327Z,98012.00
2023-03-25T07:15:43.921Z,98004.00
2023-03-25T07:18:31.616Z,98022.00
2023-03-25T07:21:19.777Z,98013.00
2023-03-25T07:24:07.921Z,98002.00
2023-03-25T07:26:55.391Z,98001.00
2023-03-25T07:29:42.941Z,97999.00
2023-03-25T07:32:30.454Z,98000.00
2023-03-25T07:35:18.153Z,97994.00
2023-03-25T07:38:05.778Z,97998.00
2023-03-25T07:40:53.318Z,97996.00
2023-03-25T07:43:41.221Z,98007.00
2023-03-25T07:46:29.075Z,98005.00
2023-03-25T07:49:17.758Z,98001.00
2023-03-25T07:52:05.347Z,97999.00
2023-03-25T07:54:52.954Z,97988.00
2023-03-25T07:57:43.807Z,97991.00
2023-03-25T08:00:31.352Z,97996.00
2023-03-25T08:03:18.997Z,97993.00
2023-03-25T08:06:08.185Z,98000.00
2023-03-25T08:08:55.999Z,98015.00
2023-03-25T08:11:43.598Z,98018.00
2023-03-25T08:14:31.515Z,98031.00
2023-03-25T08:17:19.004Z,98040.00
2023-03-25T08:20:09.028Z,98038.00
2023-03-25T08:22:58.571Z,98033.00
2023-03-25T08:25:53.813Z,98035.00
2023-03-25T08:28:41.629Z,98023.00
2023-03-25T08:31:32.681Z,98032.00
2023-03-25T08:34:22.972Z,98031.00
2023-03-25T08:37:16.856Z,98035.00
2023-03-25T08:40:11.402Z,98029.00
2023-03-25T08:42:59.300Z,98036.00
2023-03-25T08:45:46.890Z,98035.00
2023-03-25T08:48:34.532Z,98016.00
2023-03-25T08:51:22.717Z,98033.00
2023-03-25T08:54:10.485Z,98022.00
2023-03-25T08:56:58.145Z,98026.00
2023-03-25T08:59:45.734Z,98026.00
2023-03-25T09:02:33.332Z,98038.00
2023-03-25T09:05:20.926Z,98026.00
2023-03-25T09:08:09.768Z,98018.00
2023-03-25T09:10:57.304Z,98032.00
2023-03-25T09:13:45.006Z,98022.00
2023-03-25T09:16:34.454Z,98016.00
2023-03-25T09:19:22.148Z,98015.00
2023-03-25T09:22:09.764Z,98033.00
2023-03-25T09:24:57.453Z,98007.00
2023-03-25T09:27:45.542Z,98004.00
2023-03-25T09:30:33.190Z,98012.00
2023-03-25T09:33:20.978Z,98011.00
2023-03-25T09:36:08.769Z,98015.00
2023-03-25T09:38:56.339Z,98016.00
2023-03-25T09:42:05.438Z,98014.00
2023-03-25T09:45:22.090Z,98008.00
2023-03-25T09:48:30.884Z,97999.00
2023-03-25T09:51:38.791Z,98022.00
2023-03-25T09:54:43.171Z,98004.00
2023-03-25T09:57:33.599Z,98007.00
2023-03-25T10:00:25.604Z,97999.00
2023-03-25T10:03:37.689Z,98001.00
2023-03-25T10:06:26.512Z,97998.00
2023-03-25T10:09:54.396Z,98002.00
2023-03-25T10:12:44.736Z,97982.00
2023-03-25T10:16:00.170Z,97971.00
2023-03-25T10:18:59.692Z,97979.00
2023-03-25T10:22:07.689Z,97960.00
2023-03-25T10:25:09.952Z,97973.00
2023-03-25T10:28:01.328Z,97959.00
2023-03-25T10:30:53.925Z,97959.00
2023-03-25T10:33:53.154Z,97954.00
2023-03-25T10:36:57.831Z,97953.00
2023-03-25T10:39:47.478Z,97953.00
2023-03-25T10:42:48.472Z,97959.00
2023-03-25T10:45:36.814Z,97951.00
2023-03-25T10:48:31.278Z,97949.00
2023-03-25T10:51:26.583Z,97946.00
2023-03-25T10:54:17.331Z,97946.00
2023-03-25T10:57:11.114Z,97941.00
2023-03-25T11:00:12.874Z,97952.00
2023-03-25T11:03:02.323Z,97934.00
2023-03-25T11:05:50.273Z,97953.00
2023-03-25T11:08:39.993Z,97950.00
2023-03-25T11:11:35.942Z,97941.00
2023-03-25T11:14:28.532Z,97935.00
2023-03-25T11:17:21.175Z,97927.00
2023-03-25T11:20:21.614Z,97917.00
2023-03-25T11:23:25.654Z,97919.00
2023-03-25T11:26:20.680Z,97923.00
2023-03-25T11:29:14.446Z,97912.00
2023-03-25T11:32:16.985Z,97920.00
2023-03-25T11:35:29.975Z,97909.00
2023-03-25T11:38:23.567Z,97914.00
2023-03-25T11:41:14.795Z,97920.00
2023-03-25T11:44:06.030Z,97904.00
2023-03-25T11:47:07.998Z,97907.00
2023-03-25T11:49:56.106Z,97901.00
2023-03-25T11:52:47.171Z,97906.00
2023-03-25T11:55:55.708Z,97896.00
2023-03-25T11:58:43.621Z,97895.00
2023-03-25T12:02:03.095Z,97890.00
2023-03-25T12:05:16.710Z,97888.00
2023-03-25T12:08:17.505Z,97887.00
2023-03-25T12:11:17.160Z,97890.00
2023-03-25T12:14:28.300Z,97883.00
2023-03-25T12:17:33.604Z,97885.00
2023-03-25T12:20:32.364Z,97872.00
2023-03-25T12:23:51.962Z,97872.00
2023-03-25T12:27:28.595Z,97867.00
2023-03-25T12:30:46.412Z,97859.00
2023-03-25T12:34:19.025Z,97876.00
2023-03-25T12:37:39.724Z,97879.00
2023-03-25T12:40:44.799Z,97861.00
2023-03-25T12:44:12.755Z,97859.00
2023-03-25T12:47:41.893Z,97850.00
2023-03-25T12:50:38.311Z,97847.00
2023-03-25T12:54:14.538Z,97847.00
2023-03-25T12:57:11.251Z,97852.00
2023-03-25T13:00:14.390Z,97844.00
2023-03-25T13:03:43.151Z,97852.00
2023-03-25T13:06:59.348Z,97852.00
2023-03-25T13:10:02.079Z,97844.00
2023-03-25T13:12:57.172Z,97851.00
2023-03-25T13:15:57.613Z,97848.00
2023-03-25T13:19:10.751Z,97838.00
2023-03-25T13:22:05.967Z,97847.00
2023-03-25T13:25:05.401Z,97832.00
2023-03-25T13:27:58.021Z,97842.00
2023-03-25T13:30:49.737Z,97834.00
2023-03-25T13:33:45.828Z,97827.00
2023-03-25T13:36:42.905Z,97818.00
2023-03-25T13:40:13.570Z,97802.00
2023-03-25T13:43:13.475Z,97792.00
2023-03-25T13:46:15.881Z,97806.00
2023-03-25T13:49:32.625Z,97800.00
2023-03-25T13:52:21.094Z,97786.00
2023-03-25T13:55:21.329Z,97799.00
2023-03-25T13:58:47.098Z,97823.00
2023-03-25T14:01:53.543Z,97837.00
2023-03-25T14:05:13.653Z,97825.00
2023-03-25T14:09:06.424Z,97828.00
2023-03-25T14:12:25.590Z,97829.00
2023-03-25T14:15:59.129Z,97837.00
2023-03-25T14:18:56.626Z,97823.00
2023-03-25T14:21:50.205Z,97809.00
2023-03-25T14:24:38.631Z,97810.00
2023-03-25T14:27:37.679Z,97799.00
2023-03-25T14:30:31.270Z,97792.00
2023-03-25T14:33:19.768Z,97794.00
2023-03-25T14:36:07.832Z,97792.00
2023-03-25T14:38:57.818Z,97792.00
2023-03-25T14:42:08.548Z,97791.00
2023-03-25T14:45:38.717Z,97789.00
2023-03-25T14:48:54.579Z,97789.00
2023-03-25T14:51:48.960Z,97776.00
2023-03-25T14:54:36.809Z,97792.00
2023-03-25T14:57:29.758Z,97792.00
2023-03-25T15:00:34.601Z,97780.00
2023-03-25T15:03:33.948Z,97780.00
2023-03-25T15:06:35.148Z,97785.00
2023-03-25T15:09:23.568Z,97788.00
2023-03-25T15:12:19.432Z,97794.00
2023-03-25T15:15:53.994Z,97800.00
2023-03-25T15:19:13.670Z,97791.00
2023-03-25T15:22:01.531Z,97794.00
2023-03-25T15:24:56.714Z,97790.00
2023-03-25T15:27:57.124Z,97804.00
2023-03-25T15:31:20.413Z,97814.00
2023-03-25T15:34:28.228Z,97827.00
2023-03-25T15:37:51.206Z,97831.00
2023-03-25T15:41:17.426Z,97880.00
2023-03-25T15:44:47.821Z,97886.00
2023-03-25T15:48:00.689Z,97879.00
2023-03-25T15:51:54.942Z,97892.00
2023-03-25T15:55:09.420Z,97924.00
2023-03-25T15:58:04.894Z,97948.00
2023-03-25T16:01:00.158Z,97957.00
2023-03-25T16:04:20.900Z,97983.00
2023-03-25T16:07:14.466Z,98027.00
2023-03-25T16:10:38.369Z,98052.00
2023-03-25T16:13:25.875Z,98006.00
2023-03-25T16:16:17.411Z,97982.00
2023-03-25T16:19:11.852Z,97968.00
2023-03-25T16:22:08.466Z,97941.00
2023-03-25T16:25:14.284Z,97921.00
2023-03-25T16:28:05.176Z,97912.00
2023-03-25T16:30:55.348Z,97911.00
2023-03-25T16:33:44.545Z,97921.00
2023-03-25T16:36:32.139Z,97927.00
2023-03-25T16:39:21.837Z,97938.00
2023-03-25T16:42:34.479Z,97953.00
2023-03-25T16:45:23.446Z,97955.00
2023-03-25T16:48:25.044Z,97958.00
2023-03-25T16:51:21.400Z,97961.00
2023-03-25T16:54:20.833Z,97975.00
2023-03-25T16:57:14.575Z,97986.00
2023-03-25T17:00:18.226Z,98009.00
2023-03-25T17:03:06.399Z,98030.00
2023-03-25T17:06:28.394Z,98037.00
2023-03-25T17:09:21.026Z,98036.00
2023-03-25T17:12:16.587Z,98005.00
2023-03-25T17:15:09.413Z,98024.00
2023-03-25T17:18:01.433Z,98030.00
2023-03-25T17:20:50.831Z,97969.00
2023-03-25T17:23:41.591Z,97976.00
2023-03-25T17:27:25.215Z,97961.00
2023-03-25T17:30:37.129Z,98063.00
2023-03-25T17:33:34.421Z,98064.00
2023-03-25T17:36:22.160Z,98076.00
2023-03-25T17:39:26.588Z,98106.00
2023-03-25T17:42:24.876Z,98092.00
2023-03-25T17:45:15.743Z,98090.00
2023-03-25T17:48:03.809Z,98066.00
2023-03-25T17:50:54.800Z,98045.00
2023-03-25T17:53:42.321Z,98030.00
2023-03-25T17:56:30.408Z,98045.00
2023-03-25T17:59:21.766Z,98046.00
2023-03-25T18:02:17.667Z,98035.00
2023-03-25T18:05:07.358Z,98042.00
2023-03-25T18:07:56.526Z,98043.00
2023-03-25T18:10:44.122Z,98047.00
2023-03-25T18:13:31.632Z,98061.00
2023-03-25T18:16:22.210Z,98083.00
2023-03-25T18:19:32.169Z,98122.00
2023-03-25T18:22:20.519Z,98156.00
2023-03-25T18:25:10.160Z,98154.00
2023-03-25T18:27:58.181Z,98150.00
2023-03-25T18:30:53.560Z,98102.00
2023-03-25T18:33:42.084Z,98069.00
2023-03-25T18:36:29.655Z,98076.00
2023-03-25T18:39:24.313Z,98065.00
2023-03-25T18:42:12.062Z,98065.00
2023-03-25T18:44:59.536Z,98064.00
2023-03-25T18:47:47.744Z,98066.00
2023-03-25T18:50:40.460Z,98062.00
2023-03-25T18:53:29.956Z,98070.00
2023-03-25T18:56:19.838Z,98065.00
2023-03-25T18:59:07.936Z,98064.00
2023-03-25T19:01:55.478Z,98069.00
2023-03-25T19:04:50.591Z,98071.00
2023-03-25T19:07:49.572Z,98107.00
2023-03-25T19:10:37.307Z,98104.00
2023-03-25T19:13:25.003Z,98107.00
2023-03-25T19:16:12.533Z,98107.00
2023-03-25T19:19:00.702Z,98106.00
2023-03-25T19:21:48.492Z,98107.00
2023-03-25T19:24:36.130Z,98112.00
2023-03-25T19:27:23.641Z,98107.00
2023-03-25T19:30:16.087Z,98100.00
2023-03-25T19:33:04.000Z,98099.00
2023-03-25T19:35:55.489Z,98109.00
2023-03-25T19:38:43.299Z,98118.00
2023-03-25T19:41:31.115Z,98110.00
2023-03-25T19:44:18.691Z,98110.00
2023-03-25T19:47:06.261Z,98099.00
2023-03-25T19:49:53.785Z,98100.00
2023-03-25T19:52:43.540Z,98099.00
2023-03-25T19:55:31.272Z,98093.00
2023-03-25T19:58:20.500Z,98098.00
2023-03-25T20:01:08.721Z,98086.00
2023-03-25T20:03:56.222Z,98085.00
2023-03-25T20:06:45.384Z,98091.00
2023-03-25T20:09:33.037Z,98085.00
2023-03-25T20:12:20.628Z,98095.00
2023-03-25T20:15:10.333Z,98099.00
2023-03-25T20:17:57.960Z,98109.00
2023-03-25T20:20:45.591Z,98115.00
2023-03-25T20:23:33.198Z,98118.00
2023-03-25T20:26:20.912Z,98120.00
2023-03-25T20:29:09.008Z,98113.00
2023-03-25T20:31:57.306Z,98117.00
2023-03-25T20:34:44.841Z,98113.00
2023-03-25T20:37:32.431Z,98117.00
2023-03-25T20:40:25.338Z,98122.00
2023-03-25T20:43:18.483Z,98121.00
2023-03-25T20:46:06.380Z,98124.00
2023-03-25T20:48:54.946Z,98110.00
2023-03-25T20:51:43.614Z,98116.00
2023-03-25T20:54:31.662Z,98117.00
2023-03-25T20:57:19.274Z,98111.00
2023-03-25T21:00:08.627Z,98111.00
2023-03-25T21:02:57.776Z,98110.00
2023-03-25T21:05:46.888Z,98113.00
2023-03-25T21:08:34.567Z,98108.00
2023-03-25T21:11:22.442Z,98113.00
2023-03-25T21:14:12.996Z,98106.00
2023-03-25T21:17:00.658Z,98107.00
2023-03-25T21:19:49.358Z,98104.00
2023-03-25T21:22:45.136Z,98101.00
2023-03-25T21:25:36.324Z,98103.00
2023-03-25T21:28:26.047Z,98112.00
2023-03-25T21:31:20.275Z,98114.00
2023-03-25T21:34:07.831Z,98116.00
2023-03-25T21:36:56.531Z,98117.00
2023-03-25T21:39:44.184Z,98121.00
2023-03-25T21:42:31.803Z,98120.00
2023-03-25T21:45:19.677Z,98125.00
2023-03-25T21:48:08.440Z,98121.00
2023-03-25T21:50:59.130Z,98116.00
2023-03-25T21:53:47.774Z,98121.00
2023-03-25T21:56:35.399Z,98117.00
2023-03-25T21:59:23.946Z,98120.00
2023-03-25T22:02:14.367Z,98119.00
2023-03-25T22:05:01.854Z,98115.00
2023-03-25T22:07:49.370Z,98128.00
2023-03-25T22:10:36.962Z,98121.00
2023-03-25T22:13:24.466Z,98120.00
2023-03-25T22:16:15.736Z,98121.00
2023-03-25T22:19:04.201Z,98106.00
2023-03-25T22:21:51.761Z,98110.00
2023-03-25T22:24:39.626Z,98098.00
2023-03-25T22:27:27.199Z,98101.00
2023-03-25T22:30:15.795Z,98102.00
2023-03-25T22:33:03.572Z,98093.00
2023-03-25T22:35:51.604Z,98091.00
2023-03-25T22:38:51.461Z,98087.00
2023-03-25T22:41:39.028Z,98086.00
2023-03-25T22:44:26.746Z,98077.00
2023-03-25T22:47:14.321Z,98074.00
2023-03-25T22:50:01.966Z,98065.00
2023-03-25T22:52:49.482Z,98068.00
2023-03-25T22:55:38.062Z,98072.00
2023-03-25T22:58:28.814Z,98067.00
2023-03-25T23:01:25.876Z,98060.00
2023-03-25T23:04:14.113Z,98057.00
2023-03-25T23:07:08.061Z,98060.00
2023-03-25T23:09:56.401Z,98059.00
2023-03-25T23:12:43.946Z,98053.00
2023-03-25T23:15:31.417Z,98064.00
2023-03-25T23:18:18.970Z,98052.00
2023-03-25T23:21:12.079Z,98055.00
2023-03-25T23:24:03.400Z,98060.00
2023-03-25T23:26:50.962Z,98058.00
2023-03-25T23:29:39.619Z,98058.00
2023-03-25T23:32:27.646Z,98053.00
2023-03-25T23:35:19.355Z,98060.00
2023-03-25T23:38:06.928Z,98054.00
2023-03-25T23:41:07.872Z,98054.00
2023-03-25T23:43:56.162Z,98050.00
2023-03-25T23:46:44.132Z,98048.00
2023-03-25T23:49:33.692Z,98045.00
2023-03-25T23:52:21.641Z,98049.00
2023-03-25T23:55:12.639Z,98057.00
2023-03-25T23:58:00.167Z,98061.00
